sensor_id;sensor_type;location;lat;lon;timestamp;P1;durP1;ratioP1;P2;durP2;ratioP2
5955;SDS011;3004;48.080;11.600;2022-12-18T00:20:26;66.37;;;6.60;;
5955;SDS011;3004;48.080;11.600;2022-12-18T00:22:53;65.90;;;6.17;;
5955;SDS011;3004;48.080;11.600;2022-12-18T00:25:24;65.30;;;6.07;;
5955;SDS011;3004;48.080;11.600;2022-12-18T00:27:51;67.30;;;7.53;;
5955;SDS011;3004;48.080;11.600;2022-12-18T00:30:20;66.03;;;6.30;;
5955;SDS011;3004;48.080;11.600;2022-12-18T00:32:57;66.13;;;6.10;;
5955;SDS011;3004;48.080;11.600;2022-12-18T00:35:24;66.67;;;7.30;;
5955;SDS011;3004;48.080;11.600;2022-12-18T00:37:52;66.47;;;6.80;;
5955;SDS011;3004;48.080;11.600;2022-12-18T00:40:19;66.10;;;6.30;;
5955;SDS011;3004;48.080;11.600;2022-12-18T00:46:08;66.47;;;6.37;;
5955;SDS011;3004;48.080;11.600;2022-12-18T00:48:35;67.37;;;8.07;;
5955;SDS011;3004;48.080;11.600;2022-12-18T00:51:02;66.87;;;6.77;;
5955;SDS011;3004;48.080;11.600;2022-12-18T00:53:33;66.13;;;6.33;;
5955;SDS011;3004;48.080;11.600;2022-12-18T00:56:03;66.27;;;6.47;;
5955;SDS011;3004;48.080;11.600;2022-12-18T00:58:32;65.87;;;6.23;;
5955;SDS011;3004;48.080;11.600;2022-12-18T01:01:02;68.27;;;7.00;;
5955;SDS011;3004;48.080;11.600;2022-12-18T01:03:30;66.83;;;7.10;;
5955;SDS011;3004;48.080;11.600;2022-12-18T01:05:57;65.80;;;6.27;;
5955;SDS011;3004;48.080;11.600;2022-12-18T01:08:28;66.30;;;6.40;;
5955;SDS011;3004;48.080;11.600;2022-12-18T01:10:59;66.50;;;6.40;;
5955;SDS011;3004;48.080;11.600;2022-12-18T01:13:43;66.67;;;6.40;;
5955;SDS011;3004;48.080;11.600;2022-12-18T01:16:11;66.17;;;6.43;;
5955;SDS011;3004;48.080;11.600;2022-12-18T01:18:39;66.47;;;6.37;;
5955;SDS011;3004;48.080;11.600;2022-12-18T01:21:10;66.37;;;6.33;;
5955;SDS011;3004;48.080;11.600;2022-12-18T01:23:45;66.47;;;6.37;;
5955;SDS011;3004;48.080;11.600;2022-12-18T01:26:17;67.10;;;6.90;;
5955;SDS011;3004;48.080;11.600;2022-12-18T01:28:44;67.17;;;7.37;;
5955;SDS011;3004;48.080;11.600;2022-12-18T01:31:16;67.20;;;7.73;;
5955;SDS011;3004;48.080;11.600;2022-12-18T01:33:47;66.33;;;6.40;;
5955;SDS011;3004;48.080;11.600;2022-12-18T01:36:14;66.17;;;6.47;;
5955;SDS011;3004;48.080;11.600;2022-12-18T01:38:46;66.97;;;7.77;;
5955;SDS011;3004;48.080;11.600;2022-12-18T01:41:30;65.97;;;6.33;;
5955;SDS011;3004;48.080;11.600;2022-12-18T01:47:30;66.57;;;6.67;;
5955;SDS011;3004;48.080;11.600;2022-12-18T01:50:10;66.27;;;6.40;;
5955;SDS011;3004;48.080;11.600;2022-12-18T01:52:40;66.47;;;7.60;;
5955;SDS011;3004;48.080;11.600;2022-12-18T01:55:13;66.97;;;7.93;;
5955;SDS011;3004;48.080;11.600;2022-12-18T01:57:46;66.37;;;6.43;;
5955;SDS011;3004;48.080;11.600;2022-12-18T02:00:18;66.40;;;6.50;;
5955;SDS011;3004;48.080;11.600;2022-12-18T02:02:51;66.53;;;6.43;;
5955;SDS011;3004;48.080;11.600;2022-12-18T02:05:46;66.23;;;6.30;;
5955;SDS011;3004;48.080;11.600;2022-12-18T02:08:32;66.47;;;6.50;;
5955;SDS011;3004;48.080;11.600;2022-12-18T02:11:15;65.57;;;6.20;;
5955;SDS011;3004;48.080;11.600;2022-12-18T02:13:53;67.40;;;8.30;;
5955;SDS011;3004;48.080;11.600;2022-12-18T02:16:32;65.90;;;6.27;;
5955;SDS011;3004;48.080;11.600;2022-12-18T02:19:16;65.97;;;6.13;;
5955;SDS011;3004;48.080;11.600;2022-12-18T02:21:56;67.20;;;7.13;;
5955;SDS011;3004;48.080;11.600;2022-12-18T02:24:40;67.50;;;7.43;;
5955;SDS011;3004;48.080;11.600;2022-12-18T02:27:16;65.83;;;6.37;;
5955;SDS011;3004;48.080;11.600;2022-12-18T02:29:47;65.93;;;5.90;;
5955;SDS011;3004;48.080;11.600;2022-12-18T02:32:19;65.93;;;5.90;;
5955;SDS011;3004;48.080;11.600;2022-12-18T02:34:57;67.80;;;7.67;;
5955;SDS011;3004;48.080;11.600;2022-12-18T02:37:25;65.70;;;6.00;;
5955;SDS011;3004;48.080;11.600;2022-12-18T02:39:54;64.97;;;5.90;;
5955;SDS011;3004;48.080;11.600;2022-12-18T02:42:26;66.90;;;7.80;;
5955;SDS011;3004;48.080;11.600;2022-12-18T02:44:54;65.83;;;5.87;;
5955;SDS011;3004;48.080;11.600;2022-12-18T02:47:24;66.80;;;7.43;;
5955;SDS011;3004;48.080;11.600;2022-12-18T02:49:56;66.13;;;6.03;;
5955;SDS011;3004;48.080;11.600;2022-12-18T02:52:41;66.30;;;6.13;;
5955;SDS011;3004;48.080;11.600;2022-12-18T02:55:19;65.87;;;6.30;;
5955;SDS011;3004;48.080;11.600;2022-12-18T02:57:56;65.53;;;5.93;;
5955;SDS011;3004;48.080;11.600;2022-12-18T03:00:30;65.83;;;6.10;;
5955;SDS011;3004;48.080;11.600;2022-12-18T03:03:05;66.30;;;6.40;;
5955;SDS011;3004;48.080;11.600;2022-12-18T03:05:41;65.97;;;6.23;;
5955;SDS011;3004;48.080;11.600;2022-12-18T03:08:23;66.03;;;6.27;;
5955;SDS011;3004;48.080;11.600;2022-12-18T03:11:00;66.57;;;7.00;;
5955;SDS011;3004;48.080;11.600;2022-12-18T03:13:32;66.13;;;6.13;;
5955;SDS011;3004;48.080;11.600;2022-12-18T03:16:04;66.27;;;6.13;;
5955;SDS011;3004;48.080;11.600;2022-12-18T03:18:36;66.70;;;7.03;;
5955;SDS011;3004;48.080;11.600;2022-12-18T03:21:08;66.10;;;6.60;;
5955;SDS011;3004;48.080;11.600;2022-12-18T03:23:40;65.80;;;6.27;;
5955;SDS011;3004;48.080;11.600;2022-12-18T03:26:12;66.17;;;6.20;;
5955;SDS011;3004;48.080;11.600;2022-12-18T03:28:48;66.07;;;6.23;;
5955;SDS011;3004;48.080;11.600;2022-12-18T03:31:18;66.37;;;6.27;;
5955;SDS011;3004;48.080;11.600;2022-12-18T03:33:51;66.57;;;7.10;;
5955;SDS011;3004;48.080;11.600;2022-12-18T03:36:19;66.47;;;6.33;;
5955;SDS011;3004;48.080;11.600;2022-12-18T03:38:46;65.87;;;6.30;;
5955;SDS011;3004;48.080;11.600;2022-12-18T03:41:16;65.80;;;6.83;;
5955;SDS011;3004;48.080;11.600;2022-12-18T03:44:03;65.90;;;6.30;;
5955;SDS011;3004;48.080;11.600;2022-12-18T03:46:41;66.00;;;6.33;;
5955;SDS011;3004;48.080;11.600;2022-12-18T03:49:19;66.70;;;7.00;;
5955;SDS011;3004;48.080;11.600;2022-12-18T03:52:00;66.10;;;6.20;;
5955;SDS011;3004;48.080;11.600;2022-12-18T03:54:32;66.63;;;7.03;;
5955;SDS011;3004;48.080;11.600;2022-12-18T03:57:03;65.97;;;6.37;;
5955;SDS011;3004;48.080;11.600;2022-12-18T03:59:34;66.10;;;6.33;;
5955;SDS011;3004;48.080;11.600;2022-12-18T04:02:03;66.03;;;6.20;;
5955;SDS011;3004;48.080;11.600;2022-12-18T04:04:33;69.47;;;7.27;;
5955;SDS011;3004;48.080;11.600;2022-12-18T04:07:01;66.33;;;6.40;;
5955;SDS011;3004;48.080;11.600;2022-12-18T04:09:30;66.07;;;6.80;;
5955;SDS011;3004;48.080;11.600;2022-12-18T04:11:59;66.03;;;6.23;;
5955;SDS011;3004;48.080;11.600;2022-12-18T04:14:27;66.47;;;6.50;;
5955;SDS011;3004;48.080;11.600;2022-12-18T04:17:02;67.17;;;7.27;;
5955;SDS011;3004;48.080;11.600;2022-12-18T04:19:29;65.90;;;6.20;;
5955;SDS011;3004;48.080;11.600;2022-12-18T04:21:57;65.77;;;6.13;;
5955;SDS011;3004;48.080;11.600;2022-12-18T04:24:29;66.17;;;6.30;;
5955;SDS011;3004;48.080;11.600;2022-12-18T04:26:58;65.97;;;6.27;;
5955;SDS011;3004;48.080;11.600;2022-12-18T04:29:28;65.80;;;6.07;;
5955;SDS011;3004;48.080;11.600;2022-12-18T04:31:55;66.90;;;7.23;;
5955;SDS011;3004;48.080;11.600;2022-12-18T04:34:24;65.97;;;6.30;;
5955;SDS011;3004;48.080;11.600;2022-12-18T04:36:58;65.70;;;6.00;;
5955;SDS011;3004;48.080;11.600;2022-12-18T04:39:26;65.67;;;6.13;;
5955;SDS011;3004;48.080;11.600;2022-12-18T04:41:55;66.07;;;6.40;;
5955;SDS011;3004;48.080;11.600;2022-12-18T04:44:24;65.67;;;6.40;;
5955;SDS011;3004;48.080;11.600;2022-12-18T04:46:51;66.07;;;6.73;;
5955;SDS011;3004;48.080;11.600;2022-12-18T04:49:18;66.57;;;7.30;;
5955;SDS011;3004;48.080;11.600;2022-12-18T04:51:47;65.50;;;6.00;;
5955;SDS011;3004;48.080;11.600;2022-12-18T04:54:14;65.77;;;5.80;;
5955;SDS011;3004;48.080;11.600;2022-12-18T04:56:41;65.37;;;5.67;;
5955;SDS011;3004;48.080;11.600;2022-12-18T04:59:08;65.63;;;5.70;;
5955;SDS011;3004;48.080;11.600;2022-12-18T05:01:35;65.63;;;5.67;;
5955;SDS011;3004;48.080;11.600;2022-12-18T05:04:05;65.47;;;5.63;;
5955;SDS011;3004;48.080;11.600;2022-12-18T05:06:34;70.43;;;7.93;;
5955;SDS011;3004;48.080;11.600;2022-12-18T05:09:02;65.60;;;5.87;;
5955;SDS011;3004;48.080;11.600;2022-12-18T05:11:29;65.73;;;5.70;;
5955;SDS011;3004;48.080;11.600;2022-12-18T05:13:56;68.33;;;6.90;;
5955;SDS011;3004;48.080;11.600;2022-12-18T05:16:24;65.10;;;5.40;;
5955;SDS011;3004;48.080;11.600;2022-12-18T05:18:51;65.03;;;5.27;;
5955;SDS011;3004;48.080;11.600;2022-12-18T05:21:18;65.23;;;5.33;;
5955;SDS011;3004;48.080;11.600;2022-12-18T05:23:45;65.27;;;5.30;;
5955;SDS011;3004;48.080;11.600;2022-12-18T05:26:17;65.17;;;5.70;;
5955;SDS011;3004;48.080;11.600;2022-12-18T05:28:47;65.37;;;6.53;;
5955;SDS011;3004;48.080;11.600;2022-12-18T05:31:14;64.77;;;5.13;;
5955;SDS011;3004;48.080;11.600;2022-12-18T05:33:41;65.17;;;5.47;;
5955;SDS011;3004;48.080;11.600;2022-12-18T05:36:09;65.07;;;5.70;;
5955;SDS011;3004;48.080;11.600;2022-12-18T05:38:38;64.77;;;5.40;;
5955;SDS011;3004;48.080;11.600;2022-12-18T05:41:09;65.27;;;5.30;;
5955;SDS011;3004;48.080;11.600;2022-12-18T05:43:38;65.33;;;5.30;;
5955;SDS011;3004;48.080;11.600;2022-12-18T05:46:06;64.90;;;5.10;;
5955;SDS011;3004;48.080;11.600;2022-12-18T05:48:35;65.07;;;5.20;;
5955;SDS011;3004;48.080;11.600;2022-12-18T05:51:03;64.80;;;5.03;;
5955;SDS011;3004;48.080;11.600;2022-12-18T05:53:34;65.07;;;5.20;;
5955;SDS011;3004;48.080;11.600;2022-12-18T05:56:04;65.47;;;5.60;;
5955;SDS011;3004;48.080;11.600;2022-12-18T05:58:32;64.87;;;5.30;;
5955;SDS011;3004;48.080;11.600;2022-12-18T06:01:07;65.13;;;5.33;;
5955;SDS011;3004;48.080;11.600;2022-12-18T06:03:38;65.37;;;5.20;;
5955;SDS011;3004;48.080;11.600;2022-12-18T06:06:12;65.27;;;5.40;;
5955;SDS011;3004;48.080;11.600;2022-12-18T06:08:41;64.93;;;5.30;;
5955;SDS011;3004;48.080;11.600;2022-12-18T06:11:10;65.23;;;5.73;;
5955;SDS011;3004;48.080;11.600;2022-12-18T06:13:42;66.97;;;8.00;;
5955;SDS011;3004;48.080;11.600;2022-12-18T06:16:31;64.67;;;4.93;;
5955;SDS011;3004;48.080;11.600;2022-12-18T06:18:59;64.93;;;5.00;;
5955;SDS011;3004;48.080;11.600;2022-12-18T06:21:28;68.23;;;6.50;;
5955;SDS011;3004;48.080;11.600;2022-12-18T06:23:56;64.63;;;4.90;;
5955;SDS011;3004;48.080;11.600;2022-12-18T06:26:28;66.27;;;6.73;;
5955;SDS011;3004;48.080;11.600;2022-12-18T06:35:45;64.83;;;4.97;;
5955;SDS011;3004;48.080;11.600;2022-12-18T06:38:12;66.80;;;6.90;;
5955;SDS011;3004;48.080;11.600;2022-12-18T06:40:40;64.20;;;4.97;;
5955;SDS011;3004;48.080;11.600;2022-12-18T06:43:09;64.67;;;4.80;;
5955;SDS011;3004;48.080;11.600;2022-12-18T06:45:36;64.67;;;4.80;;
5955;SDS011;3004;48.080;11.600;2022-12-18T06:48:05;64.60;;;4.77;;
5955;SDS011;3004;48.080;11.600;2022-12-18T06:50:42;64.67;;;4.83;;
5955;SDS011;3004;48.080;11.600;2022-12-18T06:53:09;64.77;;;4.70;;
5955;SDS011;3004;48.080;11.600;2022-12-18T06:55:36;64.37;;;4.67;;
5955;SDS011;3004;48.080;11.600;2022-12-18T06:58:07;64.87;;;4.80;;
5955;SDS011;3004;48.080;11.600;2022-12-18T07:00:34;64.70;;;4.90;;
5955;SDS011;3004;48.080;11.600;2022-12-18T07:16:36;64.43;;;4.70;;
5955;SDS011;3004;48.080;11.600;2022-12-18T07:19:03;64.80;;;4.80;;
5955;SDS011;3004;48.080;11.600;2022-12-18T07:21:30;65.50;;;5.57;;
5955;SDS011;3004;48.080;11.600;2022-12-18T07:24:00;64.37;;;4.60;;
5955;SDS011;3004;48.080;11.600;2022-12-18T07:26:27;64.53;;;4.70;;
5955;SDS011;3004;48.080;11.600;2022-12-18T07:28:56;63.80;;;4.60;;
5955;SDS011;3004;48.080;11.600;2022-12-18T07:31:24;64.57;;;4.70;;
5955;SDS011;3004;48.080;11.600;2022-12-18T07:33:53;64.37;;;4.60;;
5955;SDS011;3004;48.080;11.600;2022-12-18T07:36:20;64.37;;;4.90;;
5955;SDS011;3004;48.080;11.600;2022-12-18T07:38:49;64.57;;;4.67;;
5955;SDS011;3004;48.080;11.600;2022-12-18T07:41:20;64.73;;;4.70;;
5955;SDS011;3004;48.080;11.600;2022-12-18T07:43:50;65.07;;;4.90;;
5955;SDS011;3004;48.080;11.600;2022-12-18T07:46:19;64.67;;;4.87;;
5955;SDS011;3004;48.080;11.600;2022-12-18T07:48:46;64.80;;;4.90;;
5955;SDS011;3004;48.080;11.600;2022-12-18T07:51:15;64.80;;;5.10;;
5955;SDS011;3004;48.080;11.600;2022-12-18T07:53:51;64.90;;;5.00;;
5955;SDS011;3004;48.080;11.600;2022-12-18T07:56:22;64.97;;;5.17;;
5955;SDS011;3004;48.080;11.600;2022-12-18T07:58:50;64.70;;;5.00;;
5955;SDS011;3004;48.080;11.600;2022-12-18T08:01:18;64.80;;;5.03;;
5955;SDS011;3004;48.080;11.600;2022-12-18T08:03:50;69.03;;;7.00;;
5955;SDS011;3004;48.080;11.600;2022-12-18T08:06:19;68.00;;;6.80;;
5955;SDS011;3004;48.080;11.600;2022-12-18T08:08:46;67.67;;;6.87;;
5955;SDS011;3004;48.080;11.600;2022-12-18T08:11:16;64.87;;;4.90;;
5955;SDS011;3004;48.080;11.600;2022-12-18T08:13:46;64.93;;;4.93;;
5955;SDS011;3004;48.080;11.600;2022-12-18T08:16:14;64.67;;;5.10;;
5955;SDS011;3004;48.080;11.600;2022-12-18T08:18:45;65.03;;;5.13;;
5955;SDS011;3004;48.080;11.600;2022-12-18T08:21:31;65.00;;;5.13;;
5955;SDS011;3004;48.080;11.600;2022-12-18T08:24:04;64.97;;;4.97;;
5955;SDS011;3004;48.080;11.600;2022-12-18T08:26:34;64.77;;;5.10;;
5955;SDS011;3004;48.080;11.600;2022-12-18T08:29:02;65.07;;;5.33;;
5955;SDS011;3004;48.080;11.600;2022-12-18T08:31:33;67.23;;;7.73;;
5955;SDS011;3004;48.080;11.600;2022-12-18T08:34:01;64.77;;;5.10;;
5955;SDS011;3004;48.080;11.600;2022-12-18T08:36:28;64.97;;;5.50;;
5955;SDS011;3004;48.080;11.600;2022-12-18T08:38:57;64.87;;;5.40;;
5955;SDS011;3004;48.080;11.600;2022-12-18T08:41:24;64.83;;;5.20;;
5955;SDS011;3004;48.080;11.600;2022-12-18T08:43:54;64.97;;;5.23;;
5955;SDS011;3004;48.080;11.600;2022-12-18T08:46:39;64.30;;;4.90;;
5955;SDS011;3004;48.080;11.600;2022-12-18T08:49:10;64.20;;;4.83;;
5955;SDS011;3004;48.080;11.600;2022-12-18T08:51:40;65.37;;;5.43;;
5955;SDS011;3004;48.080;11.600;2022-12-18T08:54:12;66.90;;;6.70;;
5955;SDS011;3004;48.080;11.600;2022-12-18T08:56:41;64.77;;;5.00;;
5955;SDS011;3004;48.080;11.600;2022-12-18T08:59:08;64.40;;;4.70;;
5955;SDS011;3004;48.080;11.600;2022-12-18T09:01:38;65.03;;;5.00;;
5955;SDS011;3004;48.080;11.600;2022-12-18T09:04:07;64.53;;;4.60;;
5955;SDS011;3004;48.080;11.600;2022-12-18T09:06:37;64.87;;;4.70;;
5955;SDS011;3004;48.080;11.600;2022-12-18T09:09:04;65.80;;;5.83;;
5955;SDS011;3004;48.080;11.600;2022-12-18T09:11:38;64.80;;;4.50;;
5955;SDS011;3004;48.080;11.600;2022-12-18T09:14:08;64.37;;;4.43;;
5955;SDS011;3004;48.080;11.600;2022-12-18T09:16:38;64.37;;;4.43;;
5955;SDS011;3004;48.080;11.600;2022-12-18T09:19:08;64.40;;;4.37;;
5955;SDS011;3004;48.080;11.600;2022-12-18T09:21:36;64.70;;;4.40;;
5955;SDS011;3004;48.080;11.600;2022-12-18T09:24:04;63.97;;;4.30;;
5955;SDS011;3004;48.080;11.600;2022-12-18T09:26:35;64.50;;;4.77;;
5955;SDS011;3004;48.080;11.600;2022-12-18T09:29:06;64.47;;;4.60;;
5955;SDS011;3004;48.080;11.600;2022-12-18T09:31:36;64.10;;;4.30;;
5955;SDS011;3004;48.080;11.600;2022-12-18T09:34:05;64.43;;;4.87;;
5955;SDS011;3004;48.080;11.600;2022-12-18T09:36:32;64.13;;;4.30;;
5955;SDS011;3004;48.080;11.600;2022-12-18T09:39:00;64.53;;;4.40;;
5955;SDS011;3004;48.080;11.600;2022-12-18T09:41:33;64.77;;;5.00;;
5955;SDS011;3004;48.080;11.600;2022-12-18T09:47:00;64.53;;;4.70;;
5955;SDS011;3004;48.080;11.600;2022-12-18T09:49:38;64.57;;;4.90;;
5955;SDS011;3004;48.080;11.600;2022-12-18T09:52:14;64.10;;;4.53;;
5955;SDS011;3004;48.080;11.600;2022-12-18T09:54:45;64.57;;;4.60;;
5955;SDS011;3004;48.080;11.600;2022-12-18T09:57:19;64.37;;;4.50;;
5955;SDS011;3004;48.080;11.600;2022-12-18T09:59:50;64.37;;;4.50;;
5955;SDS011;3004;48.080;11.600;2022-12-18T10:02:22;64.27;;;4.60;;
5955;SDS011;3004;48.080;11.600;2022-12-18T10:04:54;64.47;;;4.60;;
5955;SDS011;3004;48.080;11.600;2022-12-18T10:07:32;64.53;;;4.60;;
5955;SDS011;3004;48.080;11.600;2022-12-18T10:10:14;64.37;;;4.67;;
5955;SDS011;3004;48.080;11.600;2022-12-18T10:12:52;64.67;;;4.77;;
5955;SDS011;3004;48.080;11.600;2022-12-18T10:15:29;64.93;;;4.80;;
5955;SDS011;3004;48.080;11.600;2022-12-18T10:18:10;66.30;;;6.67;;
5955;SDS011;3004;48.080;11.600;2022-12-18T10:20:58;64.73;;;4.87;;
5955;SDS011;3004;48.080;11.600;2022-12-18T10:23:30;64.57;;;4.80;;
5955;SDS011;3004;48.080;11.600;2022-12-18T10:26:05;64.63;;;4.83;;
5955;SDS011;3004;48.080;11.600;2022-12-18T10:28:35;64.70;;;4.83;;
5955;SDS011;3004;48.080;11.600;2022-12-18T10:31:04;65.47;;;5.50;;
5955;SDS011;3004;48.080;11.600;2022-12-18T10:33:33;64.57;;;4.70;;
5955;SDS011;3004;48.080;11.600;2022-12-18T10:36:00;64.33;;;4.60;;
5955;SDS011;3004;48.080;11.600;2022-12-18T10:38:41;64.77;;;4.60;;
5955;SDS011;3004;48.080;11.600;2022-12-18T10:41:23;64.63;;;4.97;;
5955;SDS011;3004;48.080;11.600;2022-12-18T10:44:11;64.97;;;5.57;;
5955;SDS011;3004;48.080;11.600;2022-12-18T10:46:42;64.47;;;4.23;;
5955;SDS011;3004;48.080;11.600;2022-12-18T10:49:26;64.37;;;4.50;;
5955;SDS011;3004;48.080;11.600;2022-12-18T10:54:48;64.03;;;4.07;;
5955;SDS011;3004;48.080;11.600;2022-12-18T10:57:18;65.10;;;4.77;;
5955;SDS011;3004;48.080;11.600;2022-12-18T11:00:01;64.03;;;4.27;;
5955;SDS011;3004;48.080;11.600;2022-12-18T11:02:49;63.63;;;4.27;;
5955;SDS011;3004;48.080;11.600;2022-12-18T11:05:29;63.70;;;4.43;;
5955;SDS011;3004;48.080;11.600;2022-12-18T11:07:59;64.13;;;4.40;;
5955;SDS011;3004;48.080;11.600;2022-12-18T11:10:29;64.87;;;5.67;;
5955;SDS011;3004;48.080;11.600;2022-12-18T11:13:09;64.87;;;5.00;;
5955;SDS011;3004;48.080;11.600;2022-12-18T11:15:48;64.57;;;4.57;;
5955;SDS011;3004;48.080;11.600;2022-12-18T11:18:20;64.20;;;4.60;;
5955;SDS011;3004;48.080;11.600;2022-12-18T11:20:53;64.40;;;4.57;;
5955;SDS011;3004;48.080;11.600;2022-12-18T11:23:22;64.47;;;4.60;;
5955;SDS011;3004;48.080;11.600;2022-12-18T11:25:54;65.33;;;5.20;;
5955;SDS011;3004;48.080;11.600;2022-12-18T11:28:35;64.97;;;4.80;;
5955;SDS011;3004;48.080;11.600;2022-12-18T11:33:55;64.80;;;5.00;;
5955;SDS011;3004;48.080;11.600;2022-12-18T11:36:28;64.57;;;4.40;;
5955;SDS011;3004;48.080;11.600;2022-12-18T11:39:01;64.07;;;4.30;;
5955;SDS011;3004;48.080;11.600;2022-12-18T11:41:37;64.17;;;4.30;;
5955;SDS011;3004;48.080;11.600;2022-12-18T11:44:29;63.90;;;4.30;;
5955;SDS011;3004;48.080;11.600;2022-12-18T11:47:09;65.50;;;6.30;;
5955;SDS011;3004;48.080;11.600;2022-12-18T11:49:47;63.70;;;4.60;;
5955;SDS011;3004;48.080;11.600;2022-12-18T11:52:17;64.30;;;4.30;;
5955;SDS011;3004;48.080;11.600;2022-12-18T11:54:51;64.20;;;4.30;;
5955;SDS011;3004;48.080;11.600;2022-12-18T11:57:23;64.27;;;4.27;;
5955;SDS011;3004;48.080;11.600;2022-12-18T12:00:00;64.27;;;4.27;;
5955;SDS011;3004;48.080;11.600;2022-12-18T12:05:55;64.13;;;4.30;;
5955;SDS011;3004;48.080;11.600;2022-12-18T12:08:32;64.33;;;4.20;;
5955;SDS011;3004;48.080;11.600;2022-12-18T12:11:13;67.10;;;5.47;;
5955;SDS011;3004;48.080;11.600;2022-12-18T12:13:50;64.27;;;4.00;;
5955;SDS011;3004;48.080;11.600;2022-12-18T12:16:28;64.17;;;4.00;;
5955;SDS011;3004;48.080;11.600;2022-12-18T12:19:06;65.80;;;4.70;;
5955;SDS011;3004;48.080;11.600;2022-12-18T12:21:48;63.77;;;4.00;;
5955;SDS011;3004;48.080;11.600;2022-12-18T12:24:26;66.17;;;5.50;;
5955;SDS011;3004;48.080;11.600;2022-12-18T12:27:01;63.97;;;3.93;;
5955;SDS011;3004;48.080;11.600;2022-12-18T12:29:44;64.27;;;3.90;;
5955;SDS011;3004;48.080;11.600;2022-12-18T12:32:22;64.33;;;4.00;;
5955;SDS011;3004;48.080;11.600;2022-12-18T12:35:02;63.90;;;4.00;;
5955;SDS011;3004;48.080;11.600;2022-12-18T12:37:43;63.60;;;3.93;;
5955;SDS011;3004;48.080;11.600;2022-12-18T12:40:18;64.27;;;4.00;;
5955;SDS011;3004;48.080;11.600;2022-12-18T12:42:50;63.93;;;4.00;;
5955;SDS011;3004;48.080;11.600;2022-12-18T12:45:41;64.03;;;4.13;;
5955;SDS011;3004;48.080;11.600;2022-12-18T12:48:18;64.00;;;4.03;;
5955;SDS011;3004;48.080;11.600;2022-12-18T12:50:51;64.03;;;4.07;;
5955;SDS011;3004;48.080;11.600;2022-12-18T12:53:25;64.17;;;4.13;;
5955;SDS011;3004;48.080;11.600;2022-12-18T12:55:56;66.77;;;5.53;;
5955;SDS011;3004;48.080;11.600;2022-12-18T12:58:27;64.53;;;4.30;;
5955;SDS011;3004;48.080;11.600;2022-12-18T13:01:01;66.07;;;6.10;;
5955;SDS011;3004;48.080;11.600;2022-12-18T13:03:42;64.23;;;4.33;;
5955;SDS011;3004;48.080;11.600;2022-12-18T13:06:19;64.27;;;4.00;;
5955;SDS011;3004;48.080;11.600;2022-12-18T13:08:58;64.60;;;4.70;;
5955;SDS011;3004;48.080;11.600;2022-12-18T13:11:31;64.27;;;4.17;;
5955;SDS011;3004;48.080;11.600;2022-12-18T13:14:26;64.07;;;4.10;;
5955;SDS011;3004;48.080;11.600;2022-12-18T13:17:15;64.30;;;4.33;;
5955;SDS011;3004;48.080;11.600;2022-12-18T13:20:02;65.27;;;5.27;;
5955;SDS011;3004;48.080;11.600;2022-12-18T13:22:34;64.07;;;3.90;;
5955;SDS011;3004;48.080;11.600;2022-12-18T13:25:20;63.97;;;3.83;;
5955;SDS011;3004;48.080;11.600;2022-12-18T13:28:03;63.77;;;3.70;;
5955;SDS011;3004;48.080;11.600;2022-12-18T13:30:42;63.93;;;3.80;;
5955;SDS011;3004;48.080;11.600;2022-12-18T13:36:31;63.47;;;4.10;;
5955;SDS011;3004;48.080;11.600;2022-12-18T13:45:42;63.87;;;4.20;;
5955;SDS011;3004;48.080;11.600;2022-12-18T13:48:18;64.67;;;4.50;;
5955;SDS011;3004;48.080;11.600;2022-12-18T13:50:55;64.37;;;4.30;;
5955;SDS011;3004;48.080;11.600;2022-12-18T13:53:26;71.13;;;6.13;;
5955;SDS011;3004;48.080;11.600;2022-12-18T13:55:56;64.10;;;4.37;;
5955;SDS011;3004;48.080;11.600;2022-12-18T13:58:30;63.70;;;4.60;;
5955;SDS011;3004;48.080;11.600;2022-12-18T14:01:22;64.63;;;4.70;;
5955;SDS011;3004;48.080;11.600;2022-12-18T14:03:50;64.67;;;4.60;;
5955;SDS011;3004;48.080;11.600;2022-12-18T14:06:19;64.57;;;4.57;;
5955;SDS011;3004;48.080;11.600;2022-12-18T14:08:48;64.47;;;4.57;;
5955;SDS011;3004;48.080;11.600;2022-12-18T14:11:19;64.47;;;4.60;;
5955;SDS011;3004;48.080;11.600;2022-12-18T14:13:50;67.10;;;6.50;;
5955;SDS011;3004;48.080;11.600;2022-12-18T14:16:20;64.47;;;4.60;;
5955;SDS011;3004;48.080;11.600;2022-12-18T14:18:51;64.43;;;4.90;;
5955;SDS011;3004;48.080;11.600;2022-12-18T14:21:21;64.80;;;4.80;;
5955;SDS011;3004;48.080;11.600;2022-12-18T14:24:02;64.67;;;4.70;;
5955;SDS011;3004;48.080;11.600;2022-12-18T14:26:32;64.77;;;4.77;;
5955;SDS011;3004;48.080;11.600;2022-12-18T14:29:00;65.70;;;6.33;;
5955;SDS011;3004;48.080;11.600;2022-12-18T14:31:45;65.17;;;5.37;;
5955;SDS011;3004;48.080;11.600;2022-12-18T14:34:14;71.00;;;8.20;;
5955;SDS011;3004;48.080;11.600;2022-12-18T14:36:48;64.60;;;4.70;;
5955;SDS011;3004;48.080;11.600;2022-12-18T14:39:20;66.37;;;5.20;;
5955;SDS011;3004;48.080;11.600;2022-12-18T14:41:50;65.30;;;5.50;;
5955;SDS011;3004;48.080;11.600;2022-12-18T14:44:17;64.57;;;4.60;;
5955;SDS011;3004;48.080;11.600;2022-12-18T14:46:48;64.67;;;4.57;;
5955;SDS011;3004;48.080;11.600;2022-12-18T14:49:20;64.10;;;4.50;;
5955;SDS011;3004;48.080;11.600;2022-12-18T14:51:53;64.63;;;4.53;;
5955;SDS011;3004;48.080;11.600;2022-12-18T14:54:27;64.80;;;4.67;;
5955;SDS011;3004;48.080;11.600;2022-12-18T14:56:56;64.77;;;4.87;;
5955;SDS011;3004;48.080;11.600;2022-12-18T14:59:29;64.50;;;4.57;;
5955;SDS011;3004;48.080;11.600;2022-12-18T15:02:01;64.10;;;4.53;;
5955;SDS011;3004;48.080;11.600;2022-12-18T15:04:34;64.50;;;4.43;;
5955;SDS011;3004;48.080;11.600;2022-12-18T15:07:05;64.73;;;4.53;;
5955;SDS011;3004;48.080;11.600;2022-12-18T15:09:38;64.60;;;4.40;;
5955;SDS011;3004;48.080;11.600;2022-12-18T15:12:15;64.47;;;4.80;;
5955;SDS011;3004;48.080;11.600;2022-12-18T15:15:00;64.47;;;4.70;;
5955;SDS011;3004;48.080;11.600;2022-12-18T15:17:30;64.57;;;4.40;;
5955;SDS011;3004;48.080;11.600;2022-12-18T15:19:58;64.33;;;4.70;;
5955;SDS011;3004;48.080;11.600;2022-12-18T15:22:28;64.67;;;4.70;;
5955;SDS011;3004;48.080;11.600;2022-12-18T15:24:57;65.47;;;6.00;;
5955;SDS011;3004;48.080;11.600;2022-12-18T15:27:26;64.67;;;4.73;;
5955;SDS011;3004;48.080;11.600;2022-12-18T15:30:18;64.80;;;5.07;;
5955;SDS011;3004;48.080;11.600;2022-12-18T15:32:49;64.47;;;4.50;;
5955;SDS011;3004;48.080;11.600;2022-12-18T15:35:19;64.77;;;5.40;;
5955;SDS011;3004;48.080;11.600;2022-12-18T15:37:47;64.57;;;4.50;;
5955;SDS011;3004;48.080;11.600;2022-12-18T15:40:17;64.27;;;4.60;;
5955;SDS011;3004;48.080;11.600;2022-12-18T15:42:45;64.37;;;4.67;;
5955;SDS011;3004;48.080;11.600;2022-12-18T15:45:37;64.87;;;5.37;;
5955;SDS011;3004;48.080;11.600;2022-12-18T15:48:18;64.57;;;4.70;;
5955;SDS011;3004;48.080;11.600;2022-12-18T15:50:49;66.00;;;5.60;;
5955;SDS011;3004;48.080;11.600;2022-12-18T15:53:20;64.77;;;4.70;;
5955;SDS011;3004;48.080;11.600;2022-12-18T15:55:49;65.13;;;4.83;;
5955;SDS011;3004;48.080;11.600;2022-12-18T15:58:34;64.53;;;4.70;;
5955;SDS011;3004;48.080;11.600;2022-12-18T16:01:16;64.83;;;4.60;;
5955;SDS011;3004;48.080;11.600;2022-12-18T16:03:47;64.87;;;4.60;;
5955;SDS011;3004;48.080;11.600;2022-12-18T16:06:15;65.70;;;6.87;;
5955;SDS011;3004;48.080;11.600;2022-12-18T16:08:42;64.47;;;4.60;;
5955;SDS011;3004;48.080;11.600;2022-12-18T16:11:11;67.23;;;6.30;;
5955;SDS011;3004;48.080;11.600;2022-12-18T16:14:03;64.40;;;4.63;;
5955;SDS011;3004;48.080;11.600;2022-12-18T16:16:32;64.20;;;4.50;;
5955;SDS011;3004;48.080;11.600;2022-12-18T16:19:04;65.87;;;6.40;;
5955;SDS011;3004;48.080;11.600;2022-12-18T16:21:34;64.57;;;4.60;;
5955;SDS011;3004;48.080;11.600;2022-12-18T16:24:02;65.60;;;6.17;;
5955;SDS011;3004;48.080;11.600;2022-12-18T16:26:29;64.60;;;4.70;;
5955;SDS011;3004;48.080;11.600;2022-12-18T16:29:00;64.67;;;4.57;;